createdAt,value
2022-11-14T00:00:24.828Z,40.20
2022-11-14T00:02:52.610Z,39.03
2022-11-14T00:05:21.895Z,43.05
2022-11-14T00:07:49.527Z,41.90
2022-11-14T00:10:18.041Z,38.87
2022-11-14T00:12:45.964Z,40.67
2022-11-14T00:15:14.168Z,40.67
2022-11-14T00:17:42.048Z,40.65
2022-11-14T00:20:11.973Z,38.75
2022-11-14T00:22:41.141Z,39.40
2022-11-14T00:25:09.516Z,39.40
2022-11-14T00:27:37.221Z,43.97
2022-11-14T00:30:05.656Z,38.80
2022-11-14T00:32:33.445Z,39.47
2022-11-14T00:35:01.086Z,40.60
2022-11-14T00:37:28.723Z,38.92
2022-11-14T00:39:57.700Z,43.08
2022-11-14T00:42:25.370Z,43.33
2022-11-14T00:44:52.986Z,40.80
2022-11-14T00:47:20.706Z,41.58
2022-11-14T00:49:48.327Z,41.20
2022-11-14T00:52:15.950Z,39.80
2022-11-14T00:54:43.608Z,41.78
2022-11-14T00:57:12.675Z,43.00
2022-11-14T00:59:40.294Z,40.42
2022-11-14T01:02:08.083Z,39.60
2022-11-14T01:04:35.817Z,39.15
2022-11-14T01:07:03.482Z,40.83
2022-11-14T01:09:31.217Z,45.33
2022-11-14T01:11:58.961Z,41.10
2022-11-14T01:14:28.010Z,41.85
2022-11-14T01:16:55.812Z,39.50
2022-11-14T01:19:23.463Z,39.90
2022-11-14T01:21:51.077Z,40.58
2022-11-14T01:24:18.701Z,40.63
2022-11-14T01:26:46.328Z,42.70
2022-11-14T01:29:13.970Z,40.45
2022-11-14T01:31:42.970Z,40.67
2022-11-14T01:34:10.918Z,38.80
2022-11-14T01:36:38.543Z,43.40
2022-11-14T01:39:06.238Z,41.40
2022-11-14T01:41:33.926Z,41.85
2022-11-14T01:44:01.491Z,41.45
2022-11-14T01:46:31.693Z,41.45
2022-11-14T01:49:03.515Z,39.92
2022-11-14T01:51:35.778Z,41.63
2022-11-14T01:54:05.398Z,42.15
2022-11-14T01:56:35.110Z,43.88
2022-11-14T01:59:06.525Z,42.57
2022-11-14T02:01:37.539Z,40.95
2022-11-14T02:04:11.630Z,41.33
2022-11-14T02:06:41.995Z,43.00
2022-11-14T02:09:09.572Z,40.72
2022-11-14T02:11:39.418Z,40.93
2022-11-14T02:14:07.401Z,37.75
2022-11-14T02:16:35.347Z,42.03
2022-11-14T02:19:03.036Z,40.85
2022-11-14T02:21:32.147Z,42.35
2022-11-14T02:23:59.815Z,39.65
2022-11-14T02:26:27.504Z,42.42
2022-11-14T02:28:56.416Z,38.08
2022-11-14T02:31:24.078Z,40.58
2022-11-14T02:33:51.705Z,40.13
2022-11-14T02:36:19.363Z,41.10
2022-11-14T02:38:48.479Z,40.42
2022-11-14T02:41:16.177Z,39.28
2022-11-14T02:43:43.908Z,41.55
2022-11-14T02:46:11.713Z,42.53
2022-11-14T02:48:39.349Z,41.80
2022-11-14T02:51:07.479Z,39.45
2022-11-14T02:53:35.179Z,42.40
2022-11-14T02:56:04.304Z,40.80
2022-11-14T02:58:32.173Z,40.47
2022-11-14T03:01:19.556Z,42.83
2022-11-14T03:03:47.751Z,43.40
2022-11-14T03:06:15.454Z,38.58
2022-11-14T03:08:43.232Z,38.65
2022-11-14T03:11:12.285Z,39.05
2022-11-14T03:13:39.916Z,39.92
2022-11-14T03:16:08.455Z,39.65
2022-11-14T03:18:36.751Z,39.47
2022-11-14T03:21:08.031Z,39.60
2022-11-14T03:23:35.728Z,40.30
2022-11-14T03:26:03.953Z,41.15
2022-11-14T03:28:33.308Z,41.00
2022-11-14T03:31:00.941Z,41.38
2022-11-14T03:33:28.641Z,38.90
2022-11-14T03:35:56.301Z,39.75
2022-11-14T03:38:23.947Z,39.30
2022-11-14T03:40:51.639Z,39.50
2022-11-14T03:43:20.784Z,38.40
2022-11-14T03:45:49.887Z,39.13
2022-11-14T03:48:17.689Z,39.95
2022-11-14T03:50:45.577Z,37.63
2022-11-14T03:53:13.199Z,38.03
2022-11-14T03:55:40.773Z,40.50
2022-11-14T03:58:08.408Z,39.63
2022-11-14T04:00:36.098Z,37.95
2022-11-14T04:03:05.280Z,40.38
2022-11-14T04:05:33.000Z,37.70
2022-11-14T04:08:00.646Z,37.50
2022-11-14T04:10:28.236Z,38.13
2022-11-14T04:12:55.919Z,40.58
2022-11-14T04:15:23.480Z,41.20
2022-11-14T04:17:51.102Z,39.28
2022-11-14T04:20:20.608Z,38.83
2022-11-14T04:22:48.267Z,37.75
2022-11-14T04:25:16.068Z,39.03
2022-11-14T04:27:44.462Z,37.97
2022-11-14T04:30:12.939Z,38.28
2022-11-14T04:32:40.593Z,38.10
2022-11-14T04:35:08.800Z,38.78
2022-11-14T04:37:39.268Z,38.30
2022-11-14T04:40:08.443Z,38.33
2022-11-14T04:42:36.076Z,38.88
2022-11-14T04:45:03.870Z,36.93
2022-11-14T04:47:31.930Z,35.80
2022-11-14T04:49:59.656Z,35.10
2022-11-14T04:52:27.768Z,37.27
2022-11-14T04:54:57.096Z,39.17
2022-11-14T04:57:24.755Z,36.47
2022-11-14T04:59:52.405Z,36.67
2022-11-14T05:02:20.043Z,37.00
2022-11-14T05:04:48.426Z,37.83
2022-11-14T05:07:16.334Z,36.50
2022-11-14T05:09:44.014Z,36.38
2022-11-14T05:12:13.053Z,36.65
2022-11-14T05:14:40.664Z,36.10
2022-11-14T05:17:08.291Z,36.45
2022-11-14T05:19:35.963Z,35.55
2022-11-14T05:22:03.594Z,35.10
2022-11-14T05:24:31.230Z,35.90
2022-11-14T05:27:00.111Z,34.03
2022-11-14T05:29:29.161Z,35.38
2022-11-14T05:31:57.776Z,36.58
2022-11-14T05:34:25.493Z,34.88
2022-11-14T05:36:53.164Z,34.30
2022-11-14T05:39:20.864Z,35.40
2022-11-14T05:41:48.506Z,35.22
2022-11-14T05:44:16.144Z,37.50
2022-11-14T05:46:45.196Z,32.05
2022-11-14T05:49:13.707Z,34.42
2022-11-14T05:51:43.486Z,35.58
2022-11-14T05:54:11.128Z,34.85
2022-11-14T05:56:38.771Z,33.50
2022-11-14T05:59:06.516Z,33.88
2022-11-14T06:01:34.266Z,36.50
2022-11-14T06:04:07.156Z,35.37
2022-11-14T06:06:34.809Z,33.95
2022-11-14T06:09:02.537Z,35.03
2022-11-14T06:11:30.136Z,35.40
2022-11-14T06:13:57.773Z,35.13
2022-11-14T06:16:25.594Z,35.22
2022-11-14T06:18:54.291Z,34.10
2022-11-14T06:21:25.109Z,35.72
2022-11-14T06:23:52.815Z,34.72
2022-11-14T06:26:22.642Z,34.70
2022-11-14T06:28:50.446Z,34.85
2022-11-14T06:31:18.846Z,36.70
2022-11-14T06:33:46.974Z,36.53
2022-11-14T06:36:14.953Z,34.97
2022-11-14T06:38:44.597Z,34.97
2022-11-14T06:41:13.461Z,35.22
2022-11-14T06:43:42.629Z,36.03
2022-11-14T06:46:12.680Z,34.75
2022-11-14T06:48:40.612Z,33.38
2022-11-14T06:51:08.559Z,35.08
2022-11-14T06:53:37.044Z,34.60
2022-11-14T06:56:07.610Z,33.97
2022-11-14T06:58:36.846Z,32.95
2022-11-14T07:01:06.321Z,36.65
2022-11-14T07:03:34.327Z,34.58
2022-11-14T07:06:02.093Z,34.67
2022-11-14T07:08:29.965Z,32.53
2022-11-14T07:11:02.501Z,34.83
2022-11-14T07:13:32.584Z,33.20
2022-11-14T07:16:00.568Z,33.85
2022-11-14T07:18:28.939Z,32.20
2022-11-14T07:21:01.152Z,34.78
2022-11-14T07:23:29.488Z,35.05
2022-11-14T07:25:57.090Z,33.67
2022-11-14T07:28:24.722Z,33.97
2022-11-14T07:30:53.731Z,32.22
2022-11-14T07:33:21.411Z,33.63
2022-11-14T07:35:49.504Z,33.63
2022-11-14T07:38:17.532Z,34.85
2022-11-14T07:40:59.087Z,33.50
2022-11-14T07:43:28.165Z,33.63
2022-11-14T07:46:00.100Z,33.53
2022-11-14T07:48:28.559Z,32.47
2022-11-14T07:51:00.281Z,31.17
2022-11-14T07:53:28.317Z,32.08
2022-11-14T07:55:55.964Z,33.10
2022-11-14T07:58:23.826Z,31.52
2022-11-14T08:00:51.545Z,31.25
2022-11-14T08:03:20.665Z,30.40
2022-11-14T08:05:48.372Z,31.23
2022-11-14T08:08:16.073Z,29.90
2022-11-14T08:10:43.868Z,30.77
2022-11-14T08:16:00.201Z,31.30
2022-11-14T08:18:29.547Z,32.08
2022-11-14T08:20:57.643Z,32.75
2022-11-14T08:23:25.402Z,31.60
2022-11-14T08:25:53.443Z,29.67
2022-11-14T08:28:21.128Z,29.23
2022-11-14T08:30:48.979Z,28.95
2022-11-14T08:33:16.767Z,29.00
2022-11-14T08:35:45.836Z,31.35
2022-11-14T08:38:13.584Z,29.00
2022-11-14T08:40:41.217Z,30.07
2022-11-14T08:43:11.187Z,27.05
2022-11-14T08:45:38.868Z,42.15
2022-11-14T08:48:07.125Z,27.40
2022-11-14T08:50:34.877Z,28.90
2022-11-14T08:53:03.935Z,28.60
2022-11-14T08:55:31.970Z,29.97
2022-11-14T08:57:59.703Z,27.90
2022-11-14T09:00:27.562Z,27.15
2022-11-14T09:02:55.319Z,27.65
2022-11-14T09:05:23.064Z,27.70
2022-11-14T09:07:50.724Z,27.90
2022-11-14T09:10:19.711Z,26.70
2022-11-14T09:12:47.332Z,26.27
2022-11-14T09:15:14.976Z,26.85
2022-11-14T09:17:42.633Z,25.77
2022-11-14T09:20:10.730Z,26.63
2022-11-14T09:22:38.467Z,24.10
2022-11-14T09:25:06.935Z,24.50
2022-11-14T09:27:35.955Z,23.50
2022-11-14T09:30:03.721Z,26.00
2022-11-14T09:32:31.419Z,25.13
2022-11-14T09:34:59.028Z,25.15
2022-11-14T09:37:27.535Z,23.45
2022-11-14T09:39:55.243Z,24.02
2022-11-14T09:42:51.176Z,23.58
2022-11-14T09:45:19.003Z,24.50
2022-11-14T09:47:49.522Z,22.60
2022-11-14T09:50:24.423Z,22.27
2022-11-14T09:52:55.987Z,24.48
2022-11-14T09:55:24.676Z,23.83
2022-11-14T09:57:53.670Z,24.17
2022-11-14T10:00:22.881Z,23.45
2022-11-14T10:03:03.063Z,23.40
2022-11-14T10:05:40.986Z,21.33
2022-11-14T10:08:18.226Z,22.83
2022-11-14T10:10:52.597Z,22.35
2022-11-14T10:13:35.778Z,22.90
2022-11-14T10:16:07.563Z,19.83
2022-11-14T10:18:44.418Z,21.00
2022-11-14T10:21:25.428Z,19.20
2022-11-14T10:23:57.739Z,20.45
2022-11-14T10:26:34.104Z,21.55
2022-11-14T10:29:25.699Z,18.88
2022-11-14T10:31:57.216Z,20.23
2022-11-14T10:34:29.303Z,19.05
2022-11-14T10:37:03.649Z,19.02
2022-11-14T10:39:36.467Z,18.23
2022-11-14T10:42:11.252Z,18.98
2022-11-14T10:44:46.679Z,19.00
2022-11-14T10:47:16.284Z,18.75
2022-11-14T10:49:47.801Z,18.70
2022-11-14T10:52:17.988Z,18.52
2022-11-14T10:54:47.760Z,18.08
2022-11-14T10:57:17.869Z,18.10
2022-11-14T10:59:47.404Z,19.50
2022-11-14T11:02:15.511Z,18.35
2022-11-14T11:04:44.092Z,17.55
2022-11-14T11:07:39.334Z,19.00
2022-11-14T11:11:33.609Z,18.02
2022-11-14T11:14:02.343Z,19.88
2022-11-14T11:16:30.376Z,18.30
2022-11-14T11:19:15.023Z,18.30
2022-11-14T11:21:50.383Z,18.02
2022-11-14T11:24:32.300Z,18.20
2022-11-14T11:27:23.692Z,16.73
2022-11-14T11:30:13.203Z,19.10
2022-11-14T11:32:40.775Z,21.57
2022-11-14T11:35:13.325Z,19.80
2022-11-14T11:37:45.016Z,20.23
2022-11-14T11:40:18.653Z,19.27
2022-11-14T11:43:36.610Z,18.77
2022-11-14T11:45:41.014Z,18.63
2022-11-14T11:48:16.238Z,17.77
2022-11-14T11:50:43.998Z,17.20
2022-11-14T11:53:18.492Z,17.45
2022-11-14T11:55:47.807Z,18.57
2022-11-14T11:58:22.194Z,16.70
2022-11-14T12:02:21.520Z,16.30
2022-11-14T12:04:51.122Z,18.27
2022-11-14T12:07:20.502Z,16.35
2022-11-14T12:10:09.944Z,15.65
2022-11-14T12:12:52.999Z,15.98
2022-11-14T12:15:25.626Z,16.88
2022-11-14T12:18:21.762Z,17.05
2022-11-14T12:20:55.862Z,16.30
2022-11-14T12:23:53.107Z,17.38
2022-11-14T12:26:33.952Z,17.17
2022-11-14T12:29:13.345Z,16.67
2022-11-14T12:32:31.267Z,16.93
2022-11-14T12:35:00.222Z,18.17
2022-11-14T12:37:32.621Z,17.47
2022-11-14T12:40:01.965Z,17.65
2022-11-14T12:42:29.669Z,17.08
2022-11-14T12:44:57.342Z,17.05
2022-11-14T12:47:25.887Z,18.67
2022-11-14T12:50:23.561Z,17.08
2022-11-14T12:52:53.930Z,17.58
2022-11-14T12:55:53.975Z,17.15
2022-11-14T12:58:29.428Z,18.00
2022-11-14T13:01:05.913Z,16.58
2022-11-14T13:03:42.770Z,15.50
2022-11-14T13:07:34.361Z,16.90
2022-11-14T13:10:14.957Z,15.57
2022-11-14T13:13:00.826Z,14.70
2022-11-14T13:15:49.972Z,15.18
2022-11-14T13:18:40.148Z,14.98
2022-11-14T13:21:38.603Z,13.95
2022-11-14T13:24:10.580Z,13.43
2022-11-14T13:26:49.117Z,18.23
2022-11-14T13:29:59.888Z,15.03
2022-11-14T13:33:05.005Z,13.55
2022-11-14T13:36:02.144Z,12.02
2022-11-14T13:39:14.828Z,12.02
2022-11-14T13:45:31.589Z,11.77
2022-11-14T13:48:47.466Z,10.35
2022-11-14T13:51:41.601Z,11.55
2022-11-14T13:54:17.174Z,11.25
2022-11-14T13:56:55.480Z,10.88
2022-11-14T13:59:39.341Z,12.07
2022-11-14T14:02:55.289Z,10.90
2022-11-14T14:05:31.190Z,12.07
2022-11-14T14:08:14.474Z,11.77
2022-11-14T14:10:44.252Z,11.82
2022-11-14T14:13:19.549Z,12.25
2022-11-14T14:15:50.527Z,11.20
2022-11-14T14:18:26.556Z,11.27
2022-11-14T14:20:59.647Z,11.52
2022-11-14T14:25:49.863Z,11.48
2022-11-14T14:28:22.763Z,11.57
2022-11-14T14:31:09.683Z,11.60
2022-11-14T14:33:42.341Z,10.93
2022-11-14T14:38:00.693Z,12.77
2022-11-14T14:40:30.000Z,12.70
2022-11-14T14:43:53.119Z,14.77
2022-11-14T14:46:29.713Z,11.95
2022-11-14T14:48:57.932Z,12.50
2022-11-14T14:51:33.040Z,13.00
2022-11-14T14:54:00.993Z,12.50
2022-11-14T14:56:29.898Z,13.27
2022-11-14T14:58:58.928Z,12.30
2022-11-14T15:01:32.665Z,12.65
2022-11-14T15:04:04.369Z,13.73
2022-11-14T15:06:34.068Z,15.77
2022-11-14T15:09:04.811Z,14.93
2022-11-14T15:11:33.133Z,12.98
2022-11-14T15:14:02.998Z,13.38
2022-11-14T15:16:30.912Z,13.27
2022-11-14T15:18:59.351Z,13.15
2022-11-14T15:21:28.737Z,13.88
2022-11-14T15:24:01.437Z,13.15
2022-11-14T15:26:30.645Z,13.73
2022-11-14T15:29:08.956Z,13.93
2022-11-14T15:31:37.879Z,13.07
2022-11-14T15:34:07.415Z,14.15
2022-11-14T15:36:35.359Z,14.13
2022-11-14T15:39:05.837Z,13.73
2022-11-14T15:46:06.052Z,15.90
2022-11-14T15:48:33.700Z,14.20
2022-11-14T15:52:59.085Z,15.18
2022-11-14T15:55:27.650Z,14.77
2022-11-14T15:58:13.708Z,12.57
2022-11-14T16:00:57.093Z,50.58
2022-11-14T16:05:20.794Z,14.30
2022-11-14T16:07:48.724Z,14.60
2022-11-14T16:12:16.033Z,14.30
2022-11-14T16:14:43.807Z,17.15
2022-11-14T16:17:15.056Z,15.13
2022-11-14T16:19:42.935Z,13.82
2022-11-14T16:23:00.268Z,13.88
2022-11-14T16:26:39.628Z,15.40
2022-11-14T16:29:07.805Z,14.57
2022-11-14T16:31:35.510Z,13.85
2022-11-14T16:34:03.165Z,14.63
2022-11-14T16:36:31.394Z,15.10
2022-11-14T16:39:00.628Z,14.77
2022-11-14T16:41:28.785Z,14.03
2022-11-14T16:43:58.284Z,15.03
2022-11-14T16:46:25.999Z,17.15
2022-11-14T16:48:53.651Z,17.52
2022-11-14T16:51:47.157Z,15.65
2022-11-14T16:54:10.768Z,15.80
2022-11-14T16:56:38.405Z,14.73
2022-11-14T16:59:07.875Z,18.75
2022-11-14T17:01:35.641Z,18.00
2022-11-14T17:04:03.358Z,18.33
2022-11-14T17:06:31.021Z,18.08
2022-11-14T17:08:59.397Z,16.60
2022-11-14T17:11:27.938Z,16.55
2022-11-14T17:13:55.775Z,16.63
2022-11-14T17:16:25.234Z,16.30
2022-11-14T17:18:54.038Z,18.30
2022-11-14T17:21:22.189Z,17.05
2022-11-14T17:23:54.686Z,17.23
2022-11-14T17:26:22.395Z,16.75
2022-11-14T17:28:50.021Z,16.92
2022-11-14T17:31:17.656Z,16.90
2022-11-14T17:33:51.791Z,16.67
2022-11-14T17:36:19.820Z,16.88
2022-11-14T17:38:47.501Z,17.52
2022-11-14T17:41:15.338Z,17.33
2022-11-14T17:43:43.273Z,20.33
2022-11-14T17:46:15.949Z,21.92
2022-11-14T17:48:45.859Z,19.75
2022-11-14T17:51:14.926Z,18.45
2022-11-14T17:53:43.485Z,18.48
2022-11-14T17:56:18.136Z,19.45
2022-11-14T17:58:46.545Z,18.08
2022-11-14T18:01:16.331Z,19.23
2022-11-14T18:03:44.023Z,17.10
2022-11-14T18:06:14.196Z,30.77
2022-11-14T18:08:41.912Z,9.53
2022-11-14T18:12:38.732Z,37.38
2022-11-14T18:15:07.516Z,29.20
2022-11-14T18:17:35.240Z,23.10
2022-11-14T18:20:03.153Z,17.80
2022-11-14T18:22:31.819Z,18.00
2022-11-14T18:25:04.874Z,17.87
2022-11-14T18:27:35.634Z,18.45
2022-11-14T18:30:26.762Z,18.00
2022-11-14T18:32:53.485Z,18.45
2022-11-14T18:35:21.215Z,19.23
2022-11-14T18:37:48.946Z,21.10
2022-11-14T18:40:17.065Z,17.73
2022-11-14T18:42:44.786Z,17.77
2022-11-14T18:45:13.800Z,19.92
2022-11-14T18:47:41.527Z,18.25
2022-11-14T18:50:09.781Z,17.02
2022-11-14T18:53:36.334Z,16.15
2022-11-14T18:56:05.424Z,16.27
2022-11-14T18:58:33.184Z,15.27
2022-11-14T19:01:09.645Z,15.68
2022-11-14T19:03:37.400Z,16.00
2022-11-14T19:06:05.417Z,16.08
2022-11-14T19:08:33.174Z,18.17
2022-11-14T19:11:06.392Z,18.67
2022-11-14T19:13:34.634Z,18.50
2022-11-14T19:16:03.018Z,19.33
2022-11-14T19:18:31.389Z,20.23
2022-11-14T19:20:59.862Z,22.00
2022-11-14T19:23:27.941Z,31.40
2022-11-14T19:25:59.644Z,24.77
2022-11-14T19:28:30.278Z,20.77
2022-11-14T19:31:01.893Z,18.70
2022-11-14T19:33:29.780Z,19.55
2022-11-14T19:35:57.848Z,18.25
2022-11-14T19:38:26.126Z,17.08
2022-11-14T19:40:53.762Z,16.00
2022-11-14T19:43:21.751Z,16.50
2022-11-14T19:45:50.793Z,18.27
2022-11-14T19:48:18.498Z,18.15
2022-11-14T19:50:46.147Z,20.15
2022-11-14T19:53:13.748Z,18.52
2022-11-14T19:55:41.398Z,21.50
2022-11-14T19:58:09.038Z,23.65
2022-11-14T20:00:36.628Z,20.13
2022-11-14T20:03:05.712Z,23.55
2022-11-14T20:05:33.516Z,21.70
2022-11-14T20:08:01.062Z,22.88
2022-11-14T20:10:28.767Z,20.93
2022-11-14T20:12:56.400Z,19.70
2022-11-14T20:15:24.045Z,21.20
2022-11-14T20:17:51.663Z,22.38
2022-11-14T20:20:20.793Z,17.63
2022-11-14T20:22:48.518Z,22.30
2022-11-14T20:25:17.016Z,18.90
2022-11-14T20:27:44.649Z,17.92
2022-11-14T20:30:13.122Z,17.50
2022-11-14T20:32:40.792Z,25.45
2022-11-14T20:35:08.828Z,22.73
2022-11-14T20:37:37.852Z,18.85
2022-11-14T20:40:06.483Z,19.30
2022-11-14T20:42:34.155Z,20.35
2022-11-14T20:45:01.843Z,11.15
2022-11-14T20:47:39.676Z,20.97
2022-11-14T20:51:07.856Z,18.35
2022-11-14T20:55:40.174Z,20.40
2022-11-14T20:58:07.907Z,19.13
2022-11-14T21:00:35.593Z,19.85
2022-11-14T21:03:03.305Z,22.15
2022-11-14T21:05:31.093Z,23.30
2022-11-14T21:07:58.768Z,21.27
2022-11-14T21:10:43.834Z,16.95
2022-11-14T21:13:30.931Z,18.90
2022-11-14T21:15:58.842Z,17.67
2022-11-14T21:18:26.563Z,19.90
2022-11-14T21:21:02.132Z,15.48
2022-11-14T21:23:29.812Z,17.25
2022-11-14T21:26:06.808Z,16.48
2022-11-14T21:28:36.840Z,18.30
2022-11-14T21:31:14.988Z,20.75
2022-11-14T21:33:42.710Z,21.38
2022-11-14T21:36:42.830Z,20.08
2022-11-14T21:38:59.224Z,18.23
2022-11-14T21:41:28.249Z,17.17
2022-11-14T21:43:58.389Z,16.83
2022-11-14T21:46:26.540Z,16.17
2022-11-14T21:48:55.599Z,15.55
2022-11-14T21:51:24.457Z,15.20
2022-11-14T21:53:55.048Z,15.57
2022-11-14T21:56:24.140Z,15.95
2022-11-14T21:59:12.653Z,15.68
2022-11-14T22:02:00.535Z,15.53
2022-11-14T22:04:28.598Z,14.50
2022-11-14T22:06:56.623Z,14.77
2022-11-14T22:09:24.730Z,15.07
2022-11-14T22:11:52.401Z,15.02
2022-11-14T22:14:20.039Z,14.60
2022-11-14T22:16:49.165Z,14.55
2022-11-14T22:19:16.912Z,14.52
2022-11-14T22:21:44.647Z,14.20
2022-11-14T22:24:12.245Z,13.77
2022-11-14T22:26:41.349Z,13.43
2022-11-14T22:29:09.646Z,14.32
2022-11-14T22:31:38.215Z,14.13
2022-11-14T22:34:07.967Z,14.27
2022-11-14T22:36:36.714Z,13.80
2022-11-14T22:39:05.460Z,13.20
2022-11-14T22:41:34.162Z,13.43
2022-11-14T22:44:02.225Z,13.52
2022-11-14T22:46:30.191Z,13.50
2022-11-14T22:48:58.186Z,14.13
2022-11-14T22:51:28.670Z,13.70
2022-11-14T22:53:57.618Z,13.65
2022-11-14T22:56:26.896Z,13.70
2022-11-14T22:58:55.097Z,13.90
2022-11-14T23:01:24.259Z,13.57
2022-11-14T23:03:55.206Z,13.65
2022-11-14T23:06:23.821Z,13.88
2022-11-14T23:08:53.213Z,12.68
2022-11-14T23:11:23.023Z,13.37
2022-11-14T23:13:52.770Z,13.65
2022-11-14T23:16:21.638Z,13.40
2022-11-14T23:18:51.045Z,13.38
2022-11-14T23:21:20.189Z,13.93
2022-11-14T23:23:48.074Z,13.27
2022-11-14T23:26:18.917Z,14.60
2022-11-14T23:28:46.691Z,13.30
2022-11-14T23:31:19.449Z,13.80
2022-11-14T23:33:47.290Z,13.63
2022-11-14T23:36:15.398Z,14.68
2022-11-14T23:38:43.246Z,14.45
2022-11-14T23:41:15.680Z,15.10
2022-11-14T23:43:44.714Z,13.65
2022-11-14T23:46:12.429Z,13.00
2022-11-14T23:48:40.066Z,13.63
2022-11-14T23:51:08.213Z,13.30
2022-11-14T23:53:35.906Z,14.55
2022-11-14T23:56:03.950Z,13.57
2022-11-14T23:58:31.807Z,14.90
